sensor_id;sensor_type;location;lat;lon;timestamp;pressure;altitude;pressure_sealevel;temperature;humidity
11912;BME280;6016;41.928;25.556;2023-05-02T00:01:49;99522.72;;;14.34;64.23
11912;BME280;6016;41.928;25.556;2023-05-02T00:04:16;99532.25;;;14.45;64.79
11912;BME280;6016;41.928;25.556;2023-05-02T00:06:45;99620.94;;;14.97;65.11
11912;BME280;6016;41.928;25.556;2023-05-02T00:09:12;99620.69;;;14.82;65.25
11912;BME280;6016;41.928;25.556;2023-05-02T00:11:40;99614.59;;;14.89;65.14
11912;BME280;6016;41.928;25.556;2023-05-02T00:14:07;99671.81;;;14.84;65.56
11912;BME280;6016;41.928;25.556;2023-05-02T00:16:33;99479.00;;;13.84;65.56
11912;BME280;6016;41.928;25.556;2023-05-02T00:19:00;99561.63;;;14.07;66.01
11912;BME280;6016;41.928;25.556;2023-05-02T00:21:27;99656.88;;;14.65;65.82
11912;BME280;6016;41.928;25.556;2023-05-02T00:23:56;99637.06;;;14.59;66.15
11912;BME280;6016;41.928;25.556;2023-05-02T00:26:23;99630.31;;;14.46;66.67
11912;BME280;6016;41.928;25.556;2023-05-02T00:28:49;99636.38;;;14.39;67.23
11912;BME280;6016;41.928;25.556;2023-05-02T00:31:16;99561.19;;;13.84;67.03
11912;BME280;6016;41.928;25.556;2023-05-02T00:33:43;99637.59;;;14.26;66.96
11912;BME280;6016;41.928;25.556;2023-05-02T00:36:13;99542.72;;;13.46;66.99
11912;BME280;6016;41.928;25.556;2023-05-02T00:38:40;99549.41;;;13.50;66.82
11912;BME280;6016;41.928;25.556;2023-05-02T00:41:08;99597.25;;;13.76;67.51
11912;BME280;6016;41.928;25.556;2023-05-02T00:43:35;99647.81;;;13.93;68.33
11912;BME280;6016;41.928;25.556;2023-05-02T00:46:04;99576.78;;;13.41;68.62
11912;BME280;6016;41.928;25.556;2023-05-02T00:48:32;99546.72;;;13.22;68.09
11912;BME280;6016;41.928;25.556;2023-05-02T00:51:01;99562.81;;;13.39;67.39
11912;BME280;6016;41.928;25.556;2023-05-02T00:53:30;99658.69;;;14.00;67.65
11912;BME280;6016;41.928;25.556;2023-05-02T00:55:57;99637.84;;;13.77;67.23
11912;BME280;6016;41.928;25.556;2023-05-02T00:58:25;99540.78;;;13.10;66.91
11912;BME280;6016;41.928;25.556;2023-05-02T01:01:03;99653.53;;;13.98;67.35
11912;BME280;6016;41.928;25.556;2023-05-02T01:03:40;99641.72;;;13.83;67.87
11912;BME280;6016;41.928;25.556;2023-05-02T01:06:25;99657.19;;;13.97;67.72
11912;BME280;6016;41.928;25.556;2023-05-02T01:08:59;99609.63;;;13.58;68.15
11912;BME280;6016;41.928;25.556;2023-05-02T01:11:34;99543.03;;;13.33;67.92
11912;BME280;6016;41.928;25.556;2023-05-02T01:14:04;99562.16;;;13.27;67.53
11912;BME280;6016;41.928;25.556;2023-05-02T01:16:35;99494.53;;;12.94;67.10
11912;BME280;6016;41.928;25.556;2023-05-02T01:19:08;99654.72;;;13.86;68.01
11912;BME280;6016;41.928;25.556;2023-05-02T01:21:38;99648.19;;;13.80;67.96
11912;BME280;6016;41.928;25.556;2023-05-02T01:24:10;99570.00;;;13.18;67.65
11912;BME280;6016;41.928;25.556;2023-05-02T01:26:47;99563.22;;;13.06;67.37
11912;BME280;6016;41.928;25.556;2023-05-02T01:29:19;98888.09;;;8.86;67.32
11912;BME280;6016;41.928;25.556;2023-05-02T01:31:49;99630.44;;;13.53;66.96
11912;BME280;6016;41.928;25.556;2023-05-02T01:34:18;99597.03;;;13.22;67.20
11912;BME280;6016;41.928;25.556;2023-05-02T01:36:47;99659.59;;;13.43;66.81
11912;BME280;6016;41.928;25.556;2023-05-02T01:39:19;99656.41;;;13.39;67.41
11912;BME280;6016;41.928;25.556;2023-05-02T01:41:49;99618.69;;;13.07;67.05
11912;BME280;6016;41.928;25.556;2023-05-02T01:44:19;99651.72;;;13.13;66.83
11912;BME280;6016;41.928;25.556;2023-05-02T01:46:47;99656.81;;;13.34;66.45
11912;BME280;6016;41.928;25.556;2023-05-02T01:49:17;99611.19;;;12.93;66.89
11912;BME280;6016;41.928;25.556;2023-05-02T01:51:47;99656.16;;;13.22;67.49
11912;BME280;6016;41.928;25.556;2023-05-02T01:54:16;99523.81;;;12.35;67.68
11912;BME280;6016;41.928;25.556;2023-05-02T01:56:45;99648.78;;;13.16;67.05
11912;BME280;6016;41.928;25.556;2023-05-02T01:59:16;99630.44;;;12.95;68.24
11912;BME280;6016;41.928;25.556;2023-05-02T02:01:47;99526.84;;;12.41;67.86
11912;BME280;6016;41.928;25.556;2023-05-02T02:04:16;99651.84;;;13.12;68.17
11912;BME280;6016;41.928;25.556;2023-05-02T02:06:47;99639.06;;;12.97;67.86
11912;BME280;6016;41.928;25.556;2023-05-02T02:09:16;99647.97;;;13.06;68.37
11912;BME280;6016;41.928;25.556;2023-05-02T02:11:46;99549.53;;;12.53;67.93
11912;BME280;6016;41.928;25.556;2023-05-02T02:14:18;99635.69;;;13.15;67.21
11912;BME280;6016;41.928;25.556;2023-05-02T02:16:48;99604.09;;;12.84;67.23
11912;BME280;6016;41.928;25.556;2023-05-02T02:19:17;99640.31;;;13.03;67.44
11912;BME280;6016;41.928;25.556;2023-05-02T02:21:45;99640.88;;;13.06;67.52
11912;BME280;6016;41.928;25.556;2023-05-02T02:24:15;99633.75;;;12.97;66.76
11912;BME280;6016;41.928;25.556;2023-05-02T02:26:44;99677.94;;;13.06;66.37
11912;BME280;6016;41.928;25.556;2023-05-02T02:29:11;99644.78;;;13.02;66.63
11912;BME280;6016;41.928;25.556;2023-05-02T02:31:38;99630.56;;;12.84;66.30
11912;BME280;6016;41.928;25.556;2023-05-02T02:34:06;99649.66;;;12.87;67.73
11912;BME280;6016;41.928;25.556;2023-05-02T02:36:38;99649.25;;;12.82;67.38
11912;BME280;6016;41.928;25.556;2023-05-02T02:39:32;99626.28;;;12.73;67.12
11912;BME280;6016;41.928;25.556;2023-05-02T02:42:09;99387.38;;;11.05;67.45
11912;BME280;6016;41.928;25.556;2023-05-02T02:44:42;99585.06;;;12.21;67.74
11912;BME280;6016;41.928;25.556;2023-05-02T02:47:20;99640.03;;;12.37;68.45
11912;BME280;6016;41.928;25.556;2023-05-02T02:50:07;99388.16;;;10.86;68.89
11912;BME280;6016;41.928;25.556;2023-05-02T02:52:42;99646.47;;;12.54;68.90
11912;BME280;6016;41.928;25.556;2023-05-02T02:55:18;99649.38;;;12.61;68.91
11912;BME280;6016;41.928;25.556;2023-05-02T02:57:50;99567.78;;;12.07;68.01
11912;BME280;6016;41.928;25.556;2023-05-02T03:00:24;99391.38;;;10.89;67.77
11912;BME280;6016;41.928;25.556;2023-05-02T03:02:53;99558.47;;;11.52;67.46
11912;BME280;6016;41.928;25.556;2023-05-02T03:05:22;99559.06;;;11.65;67.74
11912;BME280;6016;41.928;25.556;2023-05-02T03:07:50;99664.41;;;12.41;68.01
11912;BME280;6016;41.928;25.556;2023-05-02T03:10:17;99557.38;;;11.64;67.51
11912;BME280;6016;41.928;25.556;2023-05-02T03:12:44;99576.72;;;11.65;67.59
11912;BME280;6016;41.928;25.556;2023-05-02T03:18:23;99676.66;;;12.32;67.83
11912;BME280;6016;41.928;25.556;2023-05-02T03:20:51;99522.28;;;11.11;68.35
11912;BME280;6016;41.928;25.556;2023-05-02T03:23:18;99601.38;;;11.85;69.45
11912;BME280;6016;41.928;25.556;2023-05-02T03:25:44;99658.94;;;12.13;69.16
11912;BME280;6016;41.928;25.556;2023-05-02T03:28:11;99589.34;;;11.61;69.24
11912;BME280;6016;41.928;25.556;2023-05-02T03:30:38;99637.31;;;11.98;69.81
11912;BME280;6016;41.928;25.556;2023-05-02T03:33:06;99633.56;;;12.00;69.28
11912;BME280;6016;41.928;25.556;2023-05-02T03:35:33;99606.66;;;11.75;68.95
11912;BME280;6016;41.928;25.556;2023-05-02T03:38:02;99687.06;;;12.23;69.01
11912;BME280;6016;41.928;25.556;2023-05-02T03:40:30;99696.16;;;12.21;68.37
11912;BME280;6016;41.928;25.556;2023-05-02T03:42:56;99690.69;;;12.22;67.49
11912;BME280;6016;41.928;25.556;2023-05-02T03:45:23;99707.41;;;12.23;67.90
11912;BME280;6016;41.928;25.556;2023-05-02T03:47:50;99671.31;;;12.12;67.85
11912;BME280;6016;41.928;25.556;2023-05-02T03:50:17;99692.06;;;12.17;68.02
11912;BME280;6016;41.928;25.556;2023-05-02T03:52:44;99620.34;;;11.59;68.64
11912;BME280;6016;41.928;25.556;2023-05-02T03:55:14;99722.72;;;12.19;68.17
11912;BME280;6016;41.928;25.556;2023-05-02T03:57:40;99600.84;;;11.50;67.97
11912;BME280;6016;41.928;25.556;2023-05-02T04:00:08;99722.69;;;12.09;67.85
11912;BME280;6016;41.928;25.556;2023-05-02T04:02:35;99731.84;;;12.05;68.00
11912;BME280;6016;41.928;25.556;2023-05-02T04:05:02;99727.03;;;12.20;68.81
11912;BME280;6016;41.928;25.556;2023-05-02T04:07:29;99630.00;;;11.39;68.40
11912;BME280;6016;41.928;25.556;2023-05-02T04:09:56;99727.03;;;12.20;68.71
11912;BME280;6016;41.928;25.556;2023-05-02T04:12:24;99731.38;;;12.31;69.49
11912;BME280;6016;41.928;25.556;2023-05-02T04:14:51;99735.28;;;12.37;69.16
11912;BME280;6016;41.928;25.556;2023-05-02T04:17:17;99735.03;;;12.40;68.12
11912;BME280;6016;41.928;25.556;2023-05-02T04:19:44;99686.44;;;12.00;68.12
11912;BME280;6016;41.928;25.556;2023-05-02T04:22:11;99732.38;;;12.40;68.21
11912;BME280;6016;41.928;25.556;2023-05-02T04:24:38;99735.16;;;12.38;68.15
11912;BME280;6016;41.928;25.556;2023-05-02T04:27:05;99739.47;;;12.40;69.03
11912;BME280;6016;41.928;25.556;2023-05-02T04:29:33;99742.25;;;12.38;69.18
11912;BME280;6016;41.928;25.556;2023-05-02T04:32:01;99742.97;;;12.40;69.38
11912;BME280;6016;41.928;25.556;2023-05-02T04:34:27;99683.72;;;12.12;69.86
11912;BME280;6016;41.928;25.556;2023-05-02T04:36:54;99687.94;;;12.24;69.31
11912;BME280;6016;41.928;25.556;2023-05-02T04:39:21;99737.56;;;12.61;68.76
11912;BME280;6016;41.928;25.556;2023-05-02T04:41:48;99695.34;;;12.40;68.76
11912;BME280;6016;41.928;25.556;2023-05-02T04:44:17;99742.75;;;12.73;68.66
11912;BME280;6016;41.928;25.556;2023-05-02T04:46:45;99708.75;;;12.68;68.91
11912;BME280;6016;41.928;25.556;2023-05-02T04:49:12;99518.69;;;11.53;70.09
11912;BME280;6016;41.928;25.556;2023-05-02T04:51:39;99688.25;;;12.70;71.72
11912;BME280;6016;41.928;25.556;2023-05-02T04:54:06;99739.41;;;13.10;71.91
11912;BME280;6016;41.928;25.556;2023-05-02T04:56:32;99740.22;;;13.20;69.98
11912;BME280;6016;41.928;25.556;2023-05-02T04:58:59;99739.81;;;13.25;68.67
11912;BME280;6016;41.928;25.556;2023-05-02T05:01:26;99693.56;;;12.90;68.17
11912;BME280;6016;41.928;25.556;2023-05-02T05:03:54;99743.97;;;13.57;67.62
11912;BME280;6016;41.928;25.556;2023-05-02T05:06:22;99607.72;;;12.83;67.83
11912;BME280;6016;41.928;25.556;2023-05-02T05:08:48;99774.47;;;13.81;66.10
11912;BME280;6016;41.928;25.556;2023-05-02T05:11:15;99693.88;;;13.64;65.65
11912;BME280;6016;41.928;25.556;2023-05-02T05:13:42;99741.63;;;13.92;63.07
11912;BME280;6016;41.928;25.556;2023-05-02T05:16:09;99740.47;;;14.04;63.21
11912;BME280;6016;41.928;25.556;2023-05-02T05:18:36;99293.03;;;11.26;61.43
11912;BME280;6016;41.928;25.556;2023-05-02T05:21:07;99721.28;;;13.92;62.58
11912;BME280;6016;41.928;25.556;2023-05-02T05:23:34;99732.94;;;14.00;62.50
11912;BME280;6016;41.928;25.556;2023-05-02T05:26:08;99743.81;;;14.06;63.14
11912;BME280;6016;41.928;25.556;2023-05-02T05:28:36;99743.38;;;14.11;62.22
11912;BME280;6016;41.928;25.556;2023-05-02T05:31:06;99654.16;;;13.54;62.27
11912;BME280;6016;41.928;25.556;2023-05-02T05:33:33;99745.69;;;14.24;61.11
11912;BME280;6016;41.928;25.556;2023-05-02T05:36:04;99727.31;;;14.13;59.72
11912;BME280;6016;41.928;25.556;2023-05-02T05:38:33;99688.03;;;13.88;60.99
11912;BME280;6016;41.928;25.556;2023-05-02T05:40:59;99723.63;;;14.24;60.01
11912;BME280;6016;41.928;25.556;2023-05-02T05:43:27;99747.56;;;14.42;60.52
11912;BME280;6016;41.928;25.556;2023-05-02T05:45:54;99755.00;;;14.56;59.13
11912;BME280;6016;41.928;25.556;2023-05-02T05:48:22;99758.56;;;14.65;58.88
11912;BME280;6016;41.928;25.556;2023-05-02T05:50:49;99762.22;;;14.74;58.62
11912;BME280;6016;41.928;25.556;2023-05-02T05:53:17;99761.72;;;14.79;57.80
11912;BME280;6016;41.928;25.556;2023-05-02T05:55:45;99766.31;;;14.86;55.92
11912;BME280;6016;41.928;25.556;2023-05-02T05:58:12;99770.25;;;14.82;53.20
11912;BME280;6016;41.928;25.556;2023-05-02T06:00:39;99745.16;;;14.67;57.53
11912;BME280;6016;41.928;25.556;2023-05-02T06:03:06;99657.28;;;14.24;56.25
11912;BME280;6016;41.928;25.556;2023-05-02T06:05:32;99624.38;;;13.98;53.20
11912;BME280;6016;41.928;25.556;2023-05-02T06:07:59;99779.88;;;15.01;50.09
11912;BME280;6016;41.928;25.556;2023-05-02T06:10:26;99779.34;;;14.98;53.82
11912;BME280;6016;41.928;25.556;2023-05-02T06:12:54;99770.47;;;15.07;51.23
11912;BME280;6016;41.928;25.556;2023-05-02T06:15:21;99773.06;;;15.17;51.64
11912;BME280;6016;41.928;25.556;2023-05-02T06:17:49;99778.13;;;15.10;49.96
11912;BME280;6016;41.928;25.556;2023-05-02T06:20:16;99773.75;;;15.19;49.44
11912;BME280;6016;41.928;25.556;2023-05-02T06:22:43;99742.41;;;14.86;52.13
11912;BME280;6016;41.928;25.556;2023-05-02T06:25:10;99772.66;;;15.30;50.41
11912;BME280;6016;41.928;25.556;2023-05-02T06:27:37;99596.94;;;14.26;50.17
11912;BME280;6016;41.928;25.556;2023-05-02T06:30:06;99730.69;;;15.15;50.81
11912;BME280;6016;41.928;25.556;2023-05-02T06:32:33;99778.09;;;15.46;48.86
11912;BME280;6016;41.928;25.556;2023-05-02T06:35:00;99772.31;;;15.51;51.01
11912;BME280;6016;41.928;25.556;2023-05-02T06:37:31;99770.09;;;15.65;51.63
11912;BME280;6016;41.928;25.556;2023-05-02T06:39:58;99789.97;;;15.79;50.59
11912;BME280;6016;41.928;25.556;2023-05-02T06:42:25;99777.03;;;15.84;51.79
11912;BME280;6016;41.928;25.556;2023-05-02T06:44:52;99773.31;;;15.95;51.88
11912;BME280;6016;41.928;25.556;2023-05-02T06:47:20;99777.66;;;16.04;51.88
11912;BME280;6016;41.928;25.556;2023-05-02T06:49:49;99773.53;;;16.10;52.99
11912;BME280;6016;41.928;25.556;2023-05-02T06:52:15;99775.25;;;16.19;52.46
11912;BME280;6016;41.928;25.556;2023-05-02T06:54:42;99775.78;;;16.23;52.18
11912;BME280;6016;41.928;25.556;2023-05-02T06:57:09;99773.81;;;16.33;51.73
11912;BME280;6016;41.928;25.556;2023-05-02T06:59:36;99755.00;;;16.26;53.00
11912;BME280;6016;41.928;25.556;2023-05-02T07:02:03;99704.81;;;16.05;50.61
11912;BME280;6016;41.928;25.556;2023-05-02T07:04:31;99757.38;;;16.46;46.65
11912;BME280;6016;41.928;25.556;2023-05-02T07:06:58;99781.34;;;16.46;49.56
11912;BME280;6016;41.928;25.556;2023-05-02T07:09:24;99771.22;;;16.50;48.66
11912;BME280;6016;41.928;25.556;2023-05-02T07:11:51;99746.25;;;16.51;45.85
11912;BME280;6016;41.928;25.556;2023-05-02T07:14:18;99733.88;;;16.33;46.52
11912;BME280;6016;41.928;25.556;2023-05-02T07:16:45;99670.53;;;16.02;47.52
11912;BME280;6016;41.928;25.556;2023-05-02T07:19:12;99744.78;;;16.73;46.86
11912;BME280;6016;41.928;25.556;2023-05-02T07:21:40;99755.78;;;16.86;44.06
11912;BME280;6016;41.928;25.556;2023-05-02T07:24:07;99768.19;;;17.04;44.64
11912;BME280;6016;41.928;25.556;2023-05-02T07:26:34;99780.53;;;17.13;44.83
11912;BME280;6016;41.928;25.556;2023-05-02T07:29:00;99792.03;;;17.22;43.48
11912;BME280;6016;41.928;25.556;2023-05-02T07:31:27;99782.03;;;17.24;45.15
11912;BME280;6016;41.928;25.556;2023-05-02T07:33:54;99787.03;;;17.27;47.35
11912;BME280;6016;41.928;25.556;2023-05-02T07:36:21;99602.78;;;16.31;45.80
11912;BME280;6016;41.928;25.556;2023-05-02T07:38:49;99777.50;;;17.50;46.68
11912;BME280;6016;41.928;25.556;2023-05-02T07:41:16;99772.00;;;17.60;44.43
11912;BME280;6016;41.928;25.556;2023-05-02T07:43:42;99771.66;;;17.71;44.50
11912;BME280;6016;41.928;25.556;2023-05-02T07:46:09;99774.63;;;17.84;43.04
11912;BME280;6016;41.928;25.556;2023-05-02T07:48:36;99764.94;;;17.92;42.82
11912;BME280;6016;41.928;25.556;2023-05-02T07:51:06;99768.41;;;18.17;43.67
11912;BME280;6016;41.928;25.556;2023-05-02T07:53:33;99770.31;;;18.40;43.86
11912;BME280;6016;41.928;25.556;2023-05-02T07:56:02;99704.69;;;18.06;43.97
11912;BME280;6016;41.928;25.556;2023-05-02T07:58:30;99773.84;;;18.64;42.70
11912;BME280;6016;41.928;25.556;2023-05-02T08:00:57;99770.72;;;18.83;42.65
11912;BME280;6016;41.928;25.556;2023-05-02T08:03:24;99770.19;;;18.88;39.78
11912;BME280;6016;41.928;25.556;2023-05-02T08:05:52;99770.72;;;18.83;39.69
11912;BME280;6016;41.928;25.556;2023-05-02T08:08:19;99719.84;;;18.45;40.73
11912;BME280;6016;41.928;25.556;2023-05-02T08:10:46;99433.88;;;16.90;42.59
11912;BME280;6016;41.928;25.556;2023-05-02T08:13:16;99761.56;;;19.09;42.34
11912;BME280;6016;41.928;25.556;2023-05-02T08:15:43;99769.31;;;19.19;41.37
11912;BME280;6016;41.928;25.556;2023-05-02T08:18:10;99675.94;;;18.48;42.94
11912;BME280;6016;41.928;25.556;2023-05-02T08:20:37;99758.34;;;19.14;40.82
11912;BME280;6016;41.928;25.556;2023-05-02T08:23:03;99763.22;;;19.10;41.66
11912;BME280;6016;41.928;25.556;2023-05-02T08:25:30;99701.13;;;18.77;43.99
11912;BME280;6016;41.928;25.556;2023-05-02T08:27:57;99745.09;;;19.21;42.73
11912;BME280;6016;41.928;25.556;2023-05-02T08:30:25;99741.00;;;19.48;43.27
11912;BME280;6016;41.928;25.556;2023-05-02T08:32:52;99748.13;;;19.56;43.17
11912;BME280;6016;41.928;25.556;2023-05-02T08:35:19;99680.78;;;19.14;42.12
11912;BME280;6016;41.928;25.556;2023-05-02T08:37:46;99681.59;;;19.15;43.21
11912;BME280;6016;41.928;25.556;2023-05-02T08:40:13;99662.28;;;19.28;39.59
11912;BME280;6016;41.928;25.556;2023-05-02T08:42:42;99745.47;;;20.01;37.89
11912;BME280;6016;41.928;25.556;2023-05-02T08:45:11;99742.50;;;20.11;38.41
11912;BME280;6016;41.928;25.556;2023-05-02T08:47:41;99734.19;;;20.21;37.35
11912;BME280;6016;41.928;25.556;2023-05-02T08:50:08;99564.50;;;19.25;35.69
11912;BME280;6016;41.928;25.556;2023-05-02T08:52:36;99686.72;;;20.15;34.48
11912;BME280;6016;41.928;25.556;2023-05-02T08:55:04;99664.75;;;20.04;34.39
11912;BME280;6016;41.928;25.556;2023-05-02T08:57:31;99743.19;;;20.50;34.33
11912;BME280;6016;41.928;25.556;2023-05-02T08:59:58;99739.97;;;20.55;32.45
11912;BME280;6016;41.928;25.556;2023-05-02T09:02:38;99743.69;;;20.60;34.85
11912;BME280;6016;41.928;25.556;2023-05-02T09:05:11;99725.38;;;20.64;34.21
11912;BME280;6016;41.928;25.556;2023-05-02T09:07:45;99730.88;;;20.92;34.06
11912;BME280;6016;41.928;25.556;2023-05-02T09:10:13;99726.41;;;21.00;36.34
11912;BME280;6016;41.928;25.556;2023-05-02T09:12:40;99709.66;;;20.98;34.64
11912;BME280;6016;41.928;25.556;2023-05-02T09:15:10;99671.19;;;20.84;34.01
11912;BME280;6016;41.928;25.556;2023-05-02T09:17:39;99715.94;;;21.33;35.54
11912;BME280;6016;41.928;25.556;2023-05-02T09:20:07;99719.31;;;21.42;38.25
11912;BME280;6016;41.928;25.556;2023-05-02T09:22:35;99705.53;;;21.52;33.16
11912;BME280;6016;41.928;25.556;2023-05-02T09:25:03;99701.81;;;21.53;33.04
11912;BME280;6016;41.928;25.556;2023-05-02T09:27:47;99690.47;;;21.58;33.04
11912;BME280;6016;41.928;25.556;2023-05-02T09:30:19;99693.13;;;21.80;34.12
11912;BME280;6016;41.928;25.556;2023-05-02T09:32:47;99696.63;;;21.80;32.02
11912;BME280;6016;41.928;25.556;2023-05-02T09:35:16;99616.72;;;21.47;32.77
11912;BME280;6016;41.928;25.556;2023-05-02T09:37:51;99626.66;;;21.53;33.98
11912;BME280;6016;41.928;25.556;2023-05-02T09:40:18;99694.25;;;21.99;31.67
11912;BME280;6016;41.928;25.556;2023-05-02T09:42:45;99666.72;;;21.90;31.42
11912;BME280;6016;41.928;25.556;2023-05-02T09:45:19;99694.91;;;22.14;32.27
11912;BME280;6016;41.928;25.556;2023-05-02T09:47:46;99571.75;;;21.62;32.87
11912;BME280;6016;41.928;25.556;2023-05-02T09:50:31;99682.41;;;22.42;31.26
11912;BME280;6016;41.928;25.556;2023-05-02T09:53:05;99684.97;;;22.57;31.92
11912;BME280;6016;41.928;25.556;2023-05-02T09:55:32;99618.66;;;22.15;32.14
11912;BME280;6016;41.928;25.556;2023-05-02T09:57:59;99675.63;;;22.59;32.37
11912;BME280;6016;41.928;25.556;2023-05-02T10:00:39;99666.94;;;22.51;30.39
11912;BME280;6016;41.928;25.556;2023-05-02T10:03:06;99646.59;;;22.28;32.37
11912;BME280;6016;41.928;25.556;2023-05-02T10:05:36;99673.53;;;22.48;31.02
11912;BME280;6016;41.928;25.556;2023-05-02T10:08:05;99666.69;;;22.45;31.35
11912;BME280;6016;41.928;25.556;2023-05-02T10:10:35;99568.75;;;21.86;31.79
11912;BME280;6016;41.928;25.556;2023-05-02T10:13:03;99530.47;;;21.63;29.74
11912;BME280;6016;41.928;25.556;2023-05-02T10:15:31;99605.03;;;22.30;29.94
11912;BME280;6016;41.928;25.556;2023-05-02T10:17:59;99675.25;;;22.69;31.67
11912;BME280;6016;41.928;25.556;2023-05-02T10:20:30;99666.53;;;22.67;32.46
11912;BME280;6016;41.928;25.556;2023-05-02T10:22:59;99663.03;;;22.67;30.80
11912;BME280;6016;41.928;25.556;2023-05-02T10:25:28;99665.94;;;22.72;30.40
11912;BME280;6016;41.928;25.556;2023-05-02T10:27:56;99615.38;;;22.33;29.74
11912;BME280;6016;41.928;25.556;2023-05-02T10:30:25;99627.00;;;22.47;30.48
11912;BME280;6016;41.928;25.556;2023-05-02T10:32:52;99653.94;;;22.68;32.26
11912;BME280;6016;41.928;25.556;2023-05-02T10:35:20;99644.81;;;22.55;29.06
11912;BME280;6016;41.928;25.556;2023-05-02T10:37:49;99644.41;;;22.72;30.18
11912;BME280;6016;41.928;25.556;2023-05-02T10:40:17;99658.47;;;22.81;29.59
11912;BME280;6016;41.928;25.556;2023-05-02T10:42:46;99654.13;;;22.73;31.75
11912;BME280;6016;41.928;25.556;2023-05-02T10:45:30;99546.31;;;22.07;32.07
11912;BME280;6016;41.928;25.556;2023-05-02T10:48:12;99644.81;;;22.96;31.64
11912;BME280;6016;41.928;25.556;2023-05-02T10:50:44;99644.81;;;23.09;30.20
11912;BME280;6016;41.928;25.556;2023-05-02T10:53:28;99638.81;;;23.27;31.23
11912;BME280;6016;41.928;25.556;2023-05-02T10:56:11;99622.22;;;23.24;29.40
11912;BME280;6016;41.928;25.556;2023-05-02T10:58:40;99550.88;;;22.87;31.84
11912;BME280;6016;41.928;25.556;2023-05-02T11:01:31;99637.50;;;23.57;30.02
11912;BME280;6016;41.928;25.556;2023-05-02T11:04:01;99632.94;;;23.64;29.83
11912;BME280;6016;41.928;25.556;2023-05-02T11:06:30;99642.00;;;23.70;31.79
11912;BME280;6016;41.928;25.556;2023-05-02T11:09:31;99643.63;;;23.84;31.09
11912;BME280;6016;41.928;25.556;2023-05-02T11:11:59;99639.91;;;23.85;29.30
11912;BME280;6016;41.928;25.556;2023-05-02T11:14:44;99644.28;;;23.73;28.83
11912;BME280;6016;41.928;25.556;2023-05-02T11:17:15;99638.88;;;23.80;29.69
11912;BME280;6016;41.928;25.556;2023-05-02T11:22:50;99645.03;;;23.94;28.54
11912;BME280;6016;41.928;25.556;2023-05-02T11:25:38;99641.75;;;23.85;27.54
11912;BME280;6016;41.928;25.556;2023-05-02T11:28:07;99639.31;;;23.77;29.72
11912;BME280;6016;41.928;25.556;2023-05-02T11:30:54;99635.16;;;23.81;29.53
11912;BME280;6016;41.928;25.556;2023-05-02T11:33:21;99635.59;;;23.71;29.10
11912;BME280;6016;41.928;25.556;2023-05-02T11:35:48;99603.94;;;23.59;30.04
11912;BME280;6016;41.928;25.556;2023-05-02T11:38:17;99626.00;;;23.82;27.77
11912;BME280;6016;41.928;25.556;2023-05-02T11:40:54;99598.63;;;23.85;27.92
11912;BME280;6016;41.928;25.556;2023-05-02T11:43:22;99622.75;;;24.19;28.90
11912;BME280;6016;41.928;25.556;2023-05-02T11:45:51;99634.13;;;24.27;27.90
11912;BME280;6016;41.928;25.556;2023-05-02T11:48:21;99616.34;;;24.13;28.10
11912;BME280;6016;41.928;25.556;2023-05-02T11:50:53;99533.16;;;23.39;27.95
11912;BME280;6016;41.928;25.556;2023-05-02T11:53:21;99602.88;;;23.67;29.45
11912;BME280;6016;41.928;25.556;2023-05-02T11:55:49;99617.75;;;23.70;31.27
11912;BME280;6016;41.928;25.556;2023-05-02T11:58:17;99394.19;;;22.19;29.22
11912;BME280;6016;41.928;25.556;2023-05-02T12:00:45;99606.91;;;23.24;29.22
11912;BME280;6016;41.928;25.556;2023-05-02T12:03:26;99617.69;;;23.11;29.19
11912;BME280;6016;41.928;25.556;2023-05-02T12:05:53;99611.91;;;23.14;30.91
11912;BME280;6016;41.928;25.556;2023-05-02T12:08:21;99604.84;;;23.19;29.78
11912;BME280;6016;41.928;25.556;2023-05-02T12:10:49;99594.91;;;23.34;29.66
11912;BME280;6016;41.928;25.556;2023-05-02T12:13:19;99273.16;;;21.54;30.39
11912;BME280;6016;41.928;25.556;2023-05-02T12:15:47;99534.44;;;23.23;31.19
11912;BME280;6016;41.928;25.556;2023-05-02T12:18:15;99585.25;;;23.65;29.25
11912;BME280;6016;41.928;25.556;2023-05-02T12:20:43;99546.56;;;23.52;30.15
11912;BME280;6016;41.928;25.556;2023-05-02T12:23:11;99493.41;;;23.41;30.97
11912;BME280;6016;41.928;25.556;2023-05-02T12:25:39;99547.81;;;23.95;30.42
11912;BME280;6016;41.928;25.556;2023-05-02T12:28:07;99543.41;;;24.08;29.19
11912;BME280;6016;41.928;25.556;2023-05-02T12:30:36;99578.44;;;24.40;28.87
11912;BME280;6016;41.928;25.556;2023-05-02T12:33:04;99576.41;;;24.35;30.27
11912;BME280;6016;41.928;25.556;2023-05-02T12:35:32;99574.06;;;24.39;30.26
11912;BME280;6016;41.928;25.556;2023-05-02T12:38:11;99563.56;;;24.56;29.57
11912;BME280;6016;41.928;25.556;2023-05-02T12:40:45;99558.41;;;24.54;30.96
11912;BME280;6016;41.928;25.556;2023-05-02T12:43:12;99515.44;;;24.34;30.16
11912;BME280;6016;41.928;25.556;2023-05-02T12:45:39;99549.03;;;24.57;28.59
11912;BME280;6016;41.928;25.556;2023-05-02T12:48:23;99553.66;;;24.50;28.46
11912;BME280;6016;41.928;25.556;2023-05-02T12:50:50;99543.00;;;24.36;28.98
11912;BME280;6016;41.928;25.556;2023-05-02T12:53:40;99541.50;;;24.40;31.09
11912;BME280;6016;41.928;25.556;2023-05-02T12:56:08;99534.41;;;24.46;30.75
11912;BME280;6016;41.928;25.556;2023-05-02T12:58:42;99520.66;;;24.54;29.97
11912;BME280;6016;41.928;25.556;2023-05-02T13:01:09;99487.75;;;24.20;30.03
11912;BME280;6016;41.928;25.556;2023-05-02T13:03:36;99498.75;;;24.44;30.68
11912;BME280;6016;41.928;25.556;2023-05-02T13:06:03;99511.31;;;24.50;29.36
11912;BME280;6016;41.928;25.556;2023-05-02T13:08:31;99511.72;;;24.54;29.30
11912;BME280;6016;41.928;25.556;2023-05-02T13:10:59;99503.63;;;24.54;29.35
11912;BME280;6016;41.928;25.556;2023-05-02T13:13:26;99515.31;;;24.48;29.25
11912;BME280;6016;41.928;25.556;2023-05-02T13:15:53;99441.59;;;24.10;30.86
11912;BME280;6016;41.928;25.556;2023-05-02T13:18:20;99508.81;;;24.55;29.06